Flight Track Log - Related Links

Times and Time Zones

All times are in EDT time to prevent confusion due to time zone crossing. See the UAL6057 flight status page for this flight to view local times or setup timezone preferences in your user account.

Time Position Orientation Groundspeed Altitude Reporting Facility
EDT Latitude Longitude Course Direction KTS MPH feet Rate Location/Type
Wed 07:23:58 PM 44.2236 -88.4203 164° South 194 223 4,600  Level Minneapolis Center
Wed 07:25:00 PM 44.0312 -88.4073 160° South  Level FlightAware Approximate
Wed 07:25:00 PM 44.1803 -88.3361 126° Southeast 248 285 8,100  Level Minneapolis Center
Wed 07:26:00 PM 43.9577 -88.3705 160° South  Level FlightAware Approximate
Wed 07:26:02 PM 44.1161 -88.3069 162° South 244 281 12,000  Level Minneapolis Center
Wed 07:27:00 PM 43.8843 -88.3338 160° South  Level FlightAware Approximate
Wed 07:27:04 PM 44.0278 -88.2825 169° South 280 322 13,000  Level Minneapolis Center
Wed 07:28:00 PM 43.8079 -88.3031 164° South  Level FlightAware Approximate
Wed 07:28:06 PM 43.9331 -88.2581 169° South 339 390 12,900  Level Minneapolis Center
Wed 07:29:00 PM 43.7314 -88.2726 164° South  Level FlightAware Approximate
Wed 07:29:08 PM 43.8364 -88.2328 169° South 351 404 12,900  Level Minneapolis Center
Wed 07:30:22 PM 43.7397 -88.2078 169° South 352 405 12,900  Level Minneapolis Center
Wed 07:31:24 PM 43.6261 -88.1769 169° South 354 407 12,900 -365 Level Minneapolis Center
Wed 07:32:17 PM 43.5306 -88.1531 170° South 348 400 12,200 -887 Descending Chicago Center
Wed 07:33:19 PM 43.4358 -88.1286 169° South 344 396 11,200 -581 Descending Chicago Center
Wed 07:34:21 PM 43.3442 -88.1417 186° South 328 377 11,000 -97 Descending Chicago Center
Wed 07:35:23 PM 43.2511 -88.1531 185° South 333 383 11,000 -290 Level Chicago Center
Wed 07:36:25 PM 43.1617 -88.1661 186° South 326 375 10,400 -1,113 Descending Chicago Center
Wed 07:37:27 PM 43.0886 -88.1750 185° South 268 308 8,700 -1,161 Descending Chicago Center
Wed 07:38:29 PM 43.0044 -88.1861 186° South 259 298 8,000 -336 Descending Chicago Center
Wed 07:39:32 PM 42.9306 -88.1983 187° South 265 305 8,000  Level Chicago Center
Wed 07:40:34 PM 42.8583 -88.2092 186° South 263 303 8,000  Level Chicago Center
Wed 07:41:36 PM 42.7858 -88.2197 186° South 263 303 8,000  Level Chicago Center
Wed 07:42:38 PM 42.7128 -88.2317 187° South 261 300 8,000  Level Chicago Center
Wed 07:43:41 PM 42.6394 -88.2350 182° South 264 304 8,000 -48 Level Chicago Center
Wed 07:44:42 PM 42.5567 -88.2256 175° South 257 296 7,900 -49 Descending Chicago Center
Wed 07:45:44 PM 42.4883 -88.2047 167° South 251 289 7,900 -387 Level Chicago Center
Wed 07:46:46 PM 42.4197 -88.1858 169° South 252 290 7,100 -484 Descending Chicago Center
Wed 07:47:48 PM 42.3531 -88.1678 169° South 245 282 6,900 -532 Descending Chicago Center
Wed 07:48:50 PM 42.2825 -88.1528 171° South 246 283 6,000 -919 Descending Chicago Center
Wed 07:49:52 PM 42.2175 -88.1142 156° South 252 290 5,000 -672 Descending Chicago Center
Wed 07:50:55 PM 42.1558 -88.0753 155° Southeast 248 285 4,600 -941 Descending Chicago Center
Wed 07:51:34 PM 42.1000 -88.0500 161° South 236 272 3,400 -1,333 Descending Chicago TRACON
Wed 07:52:34 PM 42.0500 -88.0000 143° Southeast 216 249 2,400 -893 Descending Chicago TRACON
Wed 07:53:35 PM 42.0167 -87.9667 143° Southeast 132 152 1,600 -793 Descending Chicago TRACON
Wed 07:54:35 PM 42.0000 -87.9333 124° Southeast 126 145 800 -800 Descending Chicago TRACON

Login

Don't have an account? Register now (free) for customized features, flight alerts, and more!